sensor_id;sensor_type;location;lat;lon;timestamp;P1;durP1;ratioP1;P2;durP2;ratioP2
11241;SDS011;5678;52.370;9.006;2023-03-01T00:00:43;1.57;;;1.57;;
11241;SDS011;5678;52.370;9.006;2023-03-01T00:03:12;1.27;;;1.27;;
11241;SDS011;5678;52.370;9.006;2023-03-01T00:05:43;1.40;;;1.40;;
11241;SDS011;5678;52.370;9.006;2023-03-01T00:08:11;1.20;;;1.20;;
11241;SDS011;5678;52.370;9.006;2023-03-01T00:10:39;1.10;;;1.10;;
11241;SDS011;5678;52.370;9.006;2023-03-01T00:13:07;1.40;;;1.40;;
11241;SDS011;5678;52.370;9.006;2023-03-01T00:15:37;1.23;;;1.23;;
11241;SDS011;5678;52.370;9.006;2023-03-01T00:18:07;1.10;;;1.10;;
11241;SDS011;5678;52.370;9.006;2023-03-01T00:20:36;1.27;;;1.27;;
11241;SDS011;5678;52.370;9.006;2023-03-01T00:23:03;1.40;;;1.40;;
11241;SDS011;5678;52.370;9.006;2023-03-01T00:25:31;0.97;;;0.97;;
11241;SDS011;5678;52.370;9.006;2023-03-01T00:27:59;1.23;;;1.23;;
11241;SDS011;5678;52.370;9.006;2023-03-01T00:30:27;1.60;;;1.60;;
11241;SDS011;5678;52.370;9.006;2023-03-01T00:32:55;1.43;;;1.43;;
11241;SDS011;5678;52.370;9.006;2023-03-01T00:35:24;1.27;;;1.27;;
11241;SDS011;5678;52.370;9.006;2023-03-01T00:37:52;1.37;;;1.37;;
11241;SDS011;5678;52.370;9.006;2023-03-01T00:40:23;1.20;;;1.20;;
11241;SDS011;5678;52.370;9.006;2023-03-01T00:42:51;1.07;;;1.07;;
11241;SDS011;5678;52.370;9.006;2023-03-01T00:45:19;1.40;;;1.40;;
11241;SDS011;5678;52.370;9.006;2023-03-01T00:47:47;1.30;;;1.30;;
11241;SDS011;5678;52.370;9.006;2023-03-01T00:50:15;1.43;;;1.43;;
11241;SDS011;5678;52.370;9.006;2023-03-01T00:52:45;1.20;;;1.20;;
11241;SDS011;5678;52.370;9.006;2023-03-01T00:55:13;1.40;;;1.40;;
11241;SDS011;5678;52.370;9.006;2023-03-01T00:57:41;1.57;;;1.57;;
11241;SDS011;5678;52.370;9.006;2023-03-01T01:00:10;1.30;;;1.30;;
11241;SDS011;5678;52.370;9.006;2023-03-01T01:02:38;1.10;;;1.10;;
11241;SDS011;5678;52.370;9.006;2023-03-01T01:05:06;1.40;;;1.40;;
11241;SDS011;5678;52.370;9.006;2023-03-01T01:07:35;1.50;;;1.50;;
11241;SDS011;5678;52.370;9.006;2023-03-01T01:10:05;1.33;;;1.33;;
11241;SDS011;5678;52.370;9.006;2023-03-01T01:12:33;1.20;;;1.20;;
11241;SDS011;5678;52.370;9.006;2023-03-01T01:15:01;1.30;;;1.30;;
11241;SDS011;5678;52.370;9.006;2023-03-01T01:17:30;1.57;;;1.57;;
11241;SDS011;5678;52.370;9.006;2023-03-01T01:19:57;1.40;;;1.40;;
11241;SDS011;5678;52.370;9.006;2023-03-01T01:22:25;1.20;;;1.20;;
11241;SDS011;5678;52.370;9.006;2023-03-01T01:24:53;1.30;;;1.30;;
11241;SDS011;5678;52.370;9.006;2023-03-01T01:27:22;1.05;;;1.05;;
11241;SDS011;5678;52.370;9.006;2023-03-01T01:29:52;1.20;;;1.20;;
11241;SDS011;5678;52.370;9.006;2023-03-01T01:32:20;1.40;;;1.40;;
11241;SDS011;5678;52.370;9.006;2023-03-01T01:34:50;1.43;;;1.43;;
11241;SDS011;5678;52.370;9.006;2023-03-01T01:37:18;1.40;;;1.40;;
11241;SDS011;5678;52.370;9.006;2023-03-01T01:39:46;1.40;;;1.40;;
11241;SDS011;5678;52.370;9.006;2023-03-01T01:42:15;1.10;;;1.10;;
11241;SDS011;5678;52.370;9.006;2023-03-01T01:44:46;1.30;;;1.30;;
11241;SDS011;5678;52.370;9.006;2023-03-01T01:47:14;1.33;;;1.33;;
11241;SDS011;5678;52.370;9.006;2023-03-01T01:49:47;1.23;;;1.23;;
11241;SDS011;5678;52.370;9.006;2023-03-01T01:52:18;1.33;;;1.33;;
11241;SDS011;5678;52.370;9.006;2023-03-01T01:54:50;1.20;;;1.20;;
11241;SDS011;5678;52.370;9.006;2023-03-01T01:57:22;1.30;;;1.30;;
11241;SDS011;5678;52.370;9.006;2023-03-01T01:59:56;1.30;;;1.30;;
11241;SDS011;5678;52.370;9.006;2023-03-01T02:02:27;1.27;;;1.27;;
11241;SDS011;5678;52.370;9.006;2023-03-01T02:04:58;1.30;;;1.30;;
11241;SDS011;5678;52.370;9.006;2023-03-01T02:07:30;1.10;;;1.10;;
11241;SDS011;5678;52.370;9.006;2023-03-01T02:09:59;1.23;;;1.23;;
11241;SDS011;5678;52.370;9.006;2023-03-01T02:12:27;1.30;;;1.30;;
11241;SDS011;5678;52.370;9.006;2023-03-01T02:14:57;1.33;;;1.33;;
11241;SDS011;5678;52.370;9.006;2023-03-01T02:17:25;1.30;;;1.30;;
11241;SDS011;5678;52.370;9.006;2023-03-01T02:19:57;1.60;;;1.60;;
11241;SDS011;5678;52.370;9.006;2023-03-01T02:22:35;1.17;;;1.17;;
11241;SDS011;5678;52.370;9.006;2023-03-01T02:25:08;1.30;;;1.30;;
11241;SDS011;5678;52.370;9.006;2023-03-01T02:27:47;1.20;;;1.20;;
11241;SDS011;5678;52.370;9.006;2023-03-01T02:30:23;1.37;;;1.37;;
11241;SDS011;5678;52.370;9.006;2023-03-01T02:32:52;1.40;;;1.40;;
11241;SDS011;5678;52.370;9.006;2023-03-01T02:35:29;1.60;;;1.60;;
11241;SDS011;5678;52.370;9.006;2023-03-01T02:38:00;1.20;;;1.20;;
11241;SDS011;5678;52.370;9.006;2023-03-01T02:40:29;1.60;;;1.60;;
11241;SDS011;5678;52.370;9.006;2023-03-01T02:42:58;1.35;;;1.35;;
11241;SDS011;5678;52.370;9.006;2023-03-01T02:45:28;1.30;;;1.30;;
11241;SDS011;5678;52.370;9.006;2023-03-01T02:47:56;1.35;;;1.35;;
11241;SDS011;5678;52.370;9.006;2023-03-01T02:53:15;1.65;;;1.65;;
11241;SDS011;5678;52.370;9.006;2023-03-01T02:55:49;1.38;;;1.38;;
11241;SDS011;5678;52.370;9.006;2023-03-01T02:58:17;1.30;;;1.30;;
11241;SDS011;5678;52.370;9.006;2023-03-01T03:00:46;1.15;;;1.15;;
11241;SDS011;5678;52.370;9.006;2023-03-01T03:03:15;1.13;;;1.13;;
11241;SDS011;5678;52.370;9.006;2023-03-01T03:05:45;1.25;;;1.25;;
11241;SDS011;5678;52.370;9.006;2023-03-01T03:08:14;1.10;;;1.10;;
11241;SDS011;5678;52.370;9.006;2023-03-01T03:10:50;0.95;;;0.95;;
11241;SDS011;5678;52.370;9.006;2023-03-01T03:13:18;1.52;;;1.52;;
11241;SDS011;5678;52.370;9.006;2023-03-01T03:15:49;1.00;;;1.00;;
11241;SDS011;5678;52.370;9.006;2023-03-01T03:18:18;1.00;;;1.00;;
11241;SDS011;5678;52.370;9.006;2023-03-01T03:20:46;1.40;;;1.40;;
11241;SDS011;5678;52.370;9.006;2023-03-01T03:23:18;1.30;;;1.30;;
11241;SDS011;5678;52.370;9.006;2023-03-01T03:25:47;1.23;;;1.23;;
11241;SDS011;5678;52.370;9.006;2023-03-01T03:28:16;1.00;;;1.00;;
11241;SDS011;5678;52.370;9.006;2023-03-01T03:30:44;1.30;;;1.30;;
11241;SDS011;5678;52.370;9.006;2023-03-01T03:33:14;1.00;;;1.00;;
11241;SDS011;5678;52.370;9.006;2023-03-01T03:35:43;1.50;;;1.50;;
11241;SDS011;5678;52.370;9.006;2023-03-01T03:38:14;1.17;;;1.17;;
11241;SDS011;5678;52.370;9.006;2023-03-01T03:40:44;1.02;;;1.02;;
11241;SDS011;5678;52.370;9.006;2023-03-01T03:43:15;1.33;;;1.33;;
11241;SDS011;5678;52.370;9.006;2023-03-01T03:45:44;1.00;;;1.00;;
11241;SDS011;5678;52.370;9.006;2023-03-01T03:48:14;1.33;;;1.33;;
11241;SDS011;5678;52.370;9.006;2023-03-01T03:50:47;1.10;;;1.10;;
11241;SDS011;5678;52.370;9.006;2023-03-01T03:53:16;1.23;;;1.23;;
11241;SDS011;5678;52.370;9.006;2023-03-01T03:55:44;1.23;;;1.23;;
11241;SDS011;5678;52.370;9.006;2023-03-01T03:58:15;1.40;;;1.40;;
11241;SDS011;5678;52.370;9.006;2023-03-01T04:00:46;1.38;;;1.38;;
11241;SDS011;5678;52.370;9.006;2023-03-01T04:03:17;1.00;;;1.00;;
11241;SDS011;5678;52.370;9.006;2023-03-01T04:05:46;1.48;;;1.48;;
11241;SDS011;5678;52.370;9.006;2023-03-01T04:08:16;0.80;;;0.80;;
11241;SDS011;5678;52.370;9.006;2023-03-01T04:10:46;1.38;;;1.38;;
11241;SDS011;5678;52.370;9.006;2023-03-01T04:13:16;1.00;;;1.00;;
11241;SDS011;5678;52.370;9.006;2023-03-01T04:15:46;1.20;;;1.20;;
11241;SDS011;5678;52.370;9.006;2023-03-01T04:18:16;1.50;;;1.50;;
11241;SDS011;5678;52.370;9.006;2023-03-01T04:20:45;1.33;;;1.33;;
11241;SDS011;5678;52.370;9.006;2023-03-01T04:23:14;1.20;;;1.20;;
11241;SDS011;5678;52.370;9.006;2023-03-01T04:25:46;1.17;;;1.17;;
11241;SDS011;5678;52.370;9.006;2023-03-01T04:28:20;1.30;;;1.30;;
11241;SDS011;5678;52.370;9.006;2023-03-01T04:30:50;1.15;;;1.15;;
11241;SDS011;5678;52.370;9.006;2023-03-01T04:33:20;1.48;;;1.48;;
11241;SDS011;5678;52.370;9.006;2023-03-01T04:35:48;1.27;;;1.27;;
11241;SDS011;5678;52.370;9.006;2023-03-01T04:38:16;1.65;;;1.65;;
11241;SDS011;5678;52.370;9.006;2023-03-01T04:40:45;1.25;;;1.25;;
11241;SDS011;5678;52.370;9.006;2023-03-01T04:43:13;1.17;;;1.17;;
11241;SDS011;5678;52.370;9.006;2023-03-01T04:45:41;1.20;;;1.20;;
11241;SDS011;5678;52.370;9.006;2023-03-01T04:48:10;1.20;;;1.20;;
11241;SDS011;5678;52.370;9.006;2023-03-01T04:50:39;1.25;;;1.25;;
11241;SDS011;5678;52.370;9.006;2023-03-01T04:53:07;1.20;;;1.20;;
11241;SDS011;5678;52.370;9.006;2023-03-01T04:55:35;1.40;;;1.40;;
11241;SDS011;5678;52.370;9.006;2023-03-01T04:58:02;1.15;;;1.15;;
11241;SDS011;5678;52.370;9.006;2023-03-01T05:00:30;1.10;;;1.10;;
11241;SDS011;5678;52.370;9.006;2023-03-01T05:02:59;1.08;;;1.08;;
11241;SDS011;5678;52.370;9.006;2023-03-01T05:05:29;1.00;;;1.00;;
11241;SDS011;5678;52.370;9.006;2023-03-01T05:08:01;1.50;;;1.50;;
11241;SDS011;5678;52.370;9.006;2023-03-01T05:10:31;1.13;;;1.13;;
11241;SDS011;5678;52.370;9.006;2023-03-01T05:13:01;1.13;;;1.13;;
11241;SDS011;5678;52.370;9.006;2023-03-01T05:15:31;1.00;;;1.00;;
11241;SDS011;5678;52.370;9.006;2023-03-01T05:17:59;1.20;;;1.20;;
11241;SDS011;5678;52.370;9.006;2023-03-01T05:20:27;1.00;;;1.00;;
11241;SDS011;5678;52.370;9.006;2023-03-01T05:22:57;1.20;;;1.20;;
11241;SDS011;5678;52.370;9.006;2023-03-01T05:25:27;1.20;;;1.20;;
11241;SDS011;5678;52.370;9.006;2023-03-01T05:27:59;1.10;;;1.10;;
11241;SDS011;5678;52.370;9.006;2023-03-01T05:30:30;0.98;;;0.98;;
11241;SDS011;5678;52.370;9.006;2023-03-01T05:32:58;1.00;;;1.00;;
11241;SDS011;5678;52.370;9.006;2023-03-01T05:35:27;1.00;;;1.00;;
11241;SDS011;5678;52.370;9.006;2023-03-01T05:37:58;1.20;;;1.20;;
11241;SDS011;5678;52.370;9.006;2023-03-01T05:40:28;1.05;;;1.05;;
11241;SDS011;5678;52.370;9.006;2023-03-01T05:42:56;1.20;;;1.20;;
11241;SDS011;5678;52.370;9.006;2023-03-01T05:45:25;1.20;;;1.20;;
11241;SDS011;5678;52.370;9.006;2023-03-01T05:47:55;1.25;;;1.25;;
11241;SDS011;5678;52.370;9.006;2023-03-01T05:50:24;1.23;;;1.23;;
11241;SDS011;5678;52.370;9.006;2023-03-01T05:52:56;1.40;;;1.40;;
11241;SDS011;5678;52.370;9.006;2023-03-01T05:55:26;1.10;;;1.10;;
11241;SDS011;5678;52.370;9.006;2023-03-01T05:57:57;1.20;;;1.20;;
11241;SDS011;5678;52.370;9.006;2023-03-01T06:00:25;1.00;;;1.00;;
11241;SDS011;5678;52.370;9.006;2023-03-01T06:02:54;1.08;;;1.08;;
11241;SDS011;5678;52.370;9.006;2023-03-01T06:05:22;1.05;;;1.05;;
11241;SDS011;5678;52.370;9.006;2023-03-01T06:10:27;1.33;;;1.33;;
11241;SDS011;5678;52.370;9.006;2023-03-01T06:12:56;1.10;;;1.10;;
11241;SDS011;5678;52.370;9.006;2023-03-01T06:15:24;1.00;;;1.00;;
11241;SDS011;5678;52.370;9.006;2023-03-01T06:17:53;1.25;;;1.25;;
11241;SDS011;5678;52.370;9.006;2023-03-01T06:20:26;1.27;;;1.27;;
11241;SDS011;5678;52.370;9.006;2023-03-01T06:22:56;1.38;;;1.38;;
11241;SDS011;5678;52.370;9.006;2023-03-01T06:25:25;1.30;;;1.30;;
11241;SDS011;5678;52.370;9.006;2023-03-01T06:27:55;1.17;;;1.17;;
11241;SDS011;5678;52.370;9.006;2023-03-01T06:30:24;1.40;;;1.40;;
11241;SDS011;5678;52.370;9.006;2023-03-01T06:32:53;1.20;;;1.20;;
11241;SDS011;5678;52.370;9.006;2023-03-01T06:35:27;1.38;;;1.38;;
11241;SDS011;5678;52.370;9.006;2023-03-01T06:37:56;1.15;;;1.15;;
11241;SDS011;5678;52.370;9.006;2023-03-01T06:40:25;1.27;;;1.27;;
11241;SDS011;5678;52.370;9.006;2023-03-01T06:42:54;1.08;;;1.08;;
11241;SDS011;5678;52.370;9.006;2023-03-01T06:45:23;1.20;;;1.20;;
11241;SDS011;5678;52.370;9.006;2023-03-01T06:47:51;1.20;;;1.20;;
11241;SDS011;5678;52.370;9.006;2023-03-01T06:50:19;1.05;;;1.05;;
11241;SDS011;5678;52.370;9.006;2023-03-01T06:52:48;1.30;;;1.30;;
11241;SDS011;5678;52.370;9.006;2023-03-01T06:55:22;1.25;;;1.25;;
11241;SDS011;5678;52.370;9.006;2023-03-01T06:57:54;1.33;;;1.33;;
11241;SDS011;5678;52.370;9.006;2023-03-01T07:00:23;1.55;;;1.55;;
11241;SDS011;5678;52.370;9.006;2023-03-01T07:02:51;1.25;;;1.25;;
11241;SDS011;5678;52.370;9.006;2023-03-01T07:05:20;1.30;;;1.30;;
11241;SDS011;5678;52.370;9.006;2023-03-01T07:07:48;1.10;;;1.10;;
11241;SDS011;5678;52.370;9.006;2023-03-01T07:12:56;1.52;;;1.52;;
11241;SDS011;5678;52.370;9.006;2023-03-01T07:15:25;1.70;;;1.70;;
11241;SDS011;5678;52.370;9.006;2023-03-01T07:17:53;1.20;;;1.20;;
11241;SDS011;5678;52.370;9.006;2023-03-01T07:20:23;1.10;;;1.10;;
11241;SDS011;5678;52.370;9.006;2023-03-01T07:22:51;1.30;;;1.30;;
11241;SDS011;5678;52.370;9.006;2023-03-01T07:25:19;1.30;;;1.30;;
11241;SDS011;5678;52.370;9.006;2023-03-01T07:27:48;1.40;;;1.40;;
11241;SDS011;5678;52.370;9.006;2023-03-01T07:30:18;1.00;;;1.00;;
11241;SDS011;5678;52.370;9.006;2023-03-01T07:32:47;1.15;;;1.15;;
11241;SDS011;5678;52.370;9.006;2023-03-01T07:35:15;1.10;;;1.10;;
11241;SDS011;5678;52.370;9.006;2023-03-01T07:37:43;1.35;;;1.35;;
11241;SDS011;5678;52.370;9.006;2023-03-01T07:40:11;1.45;;;1.45;;
11241;SDS011;5678;52.370;9.006;2023-03-01T07:42:39;1.47;;;1.47;;
11241;SDS011;5678;52.370;9.006;2023-03-01T07:45:07;1.57;;;1.57;;
11241;SDS011;5678;52.370;9.006;2023-03-01T07:47:37;1.15;;;1.15;;
11241;SDS011;5678;52.370;9.006;2023-03-01T07:50:05;1.33;;;1.33;;
11241;SDS011;5678;52.370;9.006;2023-03-01T07:52:34;1.30;;;1.30;;
11241;SDS011;5678;52.370;9.006;2023-03-01T07:55:02;1.20;;;1.20;;
11241;SDS011;5678;52.370;9.006;2023-03-01T07:57:30;1.50;;;1.50;;
11241;SDS011;5678;52.370;9.006;2023-03-01T07:59:58;1.40;;;1.40;;
11241;SDS011;5678;52.370;9.006;2023-03-01T08:02:26;1.30;;;1.30;;
11241;SDS011;5678;52.370;9.006;2023-03-01T08:04:55;1.10;;;1.10;;
11241;SDS011;5678;52.370;9.006;2023-03-01T08:07:23;1.30;;;1.30;;
11241;SDS011;5678;52.370;9.006;2023-03-01T08:09:51;1.40;;;1.40;;
11241;SDS011;5678;52.370;9.006;2023-03-01T08:12:19;1.43;;;1.43;;
11241;SDS011;5678;52.370;9.006;2023-03-01T08:14:47;1.30;;;1.30;;
11241;SDS011;5678;52.370;9.006;2023-03-01T08:17:15;1.17;;;1.17;;
11241;SDS011;5678;52.370;9.006;2023-03-01T08:19:43;1.13;;;1.13;;
11241;SDS011;5678;52.370;9.006;2023-03-01T08:22:12;1.10;;;1.10;;
11241;SDS011;5678;52.370;9.006;2023-03-01T08:24:40;1.27;;;1.27;;
11241;SDS011;5678;52.370;9.006;2023-03-01T08:27:07;1.10;;;1.10;;
11241;SDS011;5678;52.370;9.006;2023-03-01T08:29:36;1.50;;;1.50;;
11241;SDS011;5678;52.370;9.006;2023-03-01T08:32:04;1.00;;;1.00;;
11241;SDS011;5678;52.370;9.006;2023-03-01T08:34:32;1.10;;;1.10;;
11241;SDS011;5678;52.370;9.006;2023-03-01T08:37:01;0.93;;;0.93;;
11241;SDS011;5678;52.370;9.006;2023-03-01T08:39:31;1.00;;;1.00;;
11241;SDS011;5678;52.370;9.006;2023-03-01T08:41:59;0.83;;;0.83;;
11241;SDS011;5678;52.370;9.006;2023-03-01T08:44:27;1.13;;;1.13;;
11241;SDS011;5678;52.370;9.006;2023-03-01T08:46:54;1.00;;;1.00;;
11241;SDS011;5678;52.370;9.006;2023-03-01T08:49:23;0.60;;;0.60;;
11241;SDS011;5678;52.370;9.006;2023-03-01T08:51:51;0.97;;;0.97;;
11241;SDS011;5678;52.370;9.006;2023-03-01T08:54:20;0.97;;;0.97;;
11241;SDS011;5678;52.370;9.006;2023-03-01T08:56:50;0.50;;;0.50;;
11241;SDS011;5678;52.370;9.006;2023-03-01T08:59:18;0.60;;;0.60;;
11241;SDS011;5678;52.370;9.006;2023-03-01T09:01:46;0.50;;;0.50;;
11241;SDS011;5678;52.370;9.006;2023-03-01T09:04:14;0.80;;;0.80;;
11241;SDS011;5678;52.370;9.006;2023-03-01T09:06:43;0.60;;;0.60;;
11241;SDS011;5678;52.370;9.006;2023-03-01T09:09:12;0.70;;;0.70;;
11241;SDS011;5678;52.370;9.006;2023-03-01T09:11:42;0.57;;;0.57;;
11241;SDS011;5678;52.370;9.006;2023-03-01T09:14:17;0.50;;;0.50;;
11241;SDS011;5678;52.370;9.006;2023-03-01T09:16:50;0.40;;;0.40;;
11241;SDS011;5678;52.370;9.006;2023-03-01T09:19:18;3.03;;;2.93;;
11241;SDS011;5678;52.370;9.006;2023-03-01T09:21:46;0.63;;;0.63;;
11241;SDS011;5678;52.370;9.006;2023-03-01T09:24:20;0.40;;;0.40;;
11241;SDS011;5678;52.370;9.006;2023-03-01T09:26:49;0.40;;;0.40;;
11241;SDS011;5678;52.370;9.006;2023-03-01T09:29:21;0.50;;;0.50;;
11241;SDS011;5678;52.370;9.006;2023-03-01T09:31:49;0.43;;;0.43;;
11241;SDS011;5678;52.370;9.006;2023-03-01T09:34:17;0.50;;;0.50;;
11241;SDS011;5678;52.370;9.006;2023-03-01T09:36:49;0.37;;;0.37;;
11241;SDS011;5678;52.370;9.006;2023-03-01T09:39:17;0.40;;;0.40;;
11241;SDS011;5678;52.370;9.006;2023-03-01T09:41:47;0.43;;;0.43;;
11241;SDS011;5678;52.370;9.006;2023-03-01T09:44:26;0.67;;;0.67;;
11241;SDS011;5678;52.370;9.006;2023-03-01T09:46:58;0.50;;;0.50;;
11241;SDS011;5678;52.370;9.006;2023-03-01T09:49:27;0.40;;;0.40;;
11241;SDS011;5678;52.370;9.006;2023-03-01T09:51:59;0.43;;;0.43;;
11241;SDS011;5678;52.370;9.006;2023-03-01T09:54:30;0.30;;;0.30;;
11241;SDS011;5678;52.370;9.006;2023-03-01T09:57:14;0.47;;;0.47;;
11241;SDS011;5678;52.370;9.006;2023-03-01T09:59:52;0.30;;;0.30;;
11241;SDS011;5678;52.370;9.006;2023-03-01T10:02:32;0.27;;;0.27;;
11241;SDS011;5678;52.370;9.006;2023-03-01T10:05:11;0.43;;;0.43;;
11241;SDS011;5678;52.370;9.006;2023-03-01T10:07:48;0.30;;;0.30;;
11241;SDS011;5678;52.370;9.006;2023-03-01T10:10:32;0.30;;;0.30;;
11241;SDS011;5678;52.370;9.006;2023-03-01T10:13:02;0.50;;;0.50;;
11241;SDS011;5678;52.370;9.006;2023-03-01T10:15:39;0.40;;;0.40;;
11241;SDS011;5678;52.370;9.006;2023-03-01T10:18:12;0.20;;;0.20;;
11241;SDS011;5678;52.370;9.006;2023-03-01T10:20:44;0.30;;;0.30;;
11241;SDS011;5678;52.370;9.006;2023-03-01T10:23:18;0.40;;;0.40;;
11241;SDS011;5678;52.370;9.006;2023-03-01T10:25:47;0.40;;;0.40;;
11241;SDS011;5678;52.370;9.006;2023-03-01T10:28:31;0.40;;;0.40;;
11241;SDS011;5678;52.370;9.006;2023-03-01T10:31:08;0.30;;;0.30;;
11241;SDS011;5678;52.370;9.006;2023-03-01T10:33:40;0.40;;;0.40;;
11241;SDS011;5678;52.370;9.006;2023-03-01T10:36:08;0.40;;;0.40;;
11241;SDS011;5678;52.370;9.006;2023-03-01T10:38:50;0.40;;;0.40;;
11241;SDS011;5678;52.370;9.006;2023-03-01T10:41:23;0.30;;;0.30;;
11241;SDS011;5678;52.370;9.006;2023-03-01T10:43:53;0.30;;;0.30;;
11241;SDS011;5678;52.370;9.006;2023-03-01T10:46:26;0.40;;;0.40;;
11241;SDS011;5678;52.370;9.006;2023-03-01T10:49:14;0.30;;;0.30;;
11241;SDS011;5678;52.370;9.006;2023-03-01T10:51:47;0.40;;;0.40;;
11241;SDS011;5678;52.370;9.006;2023-03-01T10:54:16;0.43;;;0.43;;
11241;SDS011;5678;52.370;9.006;2023-03-01T10:56:47;0.30;;;0.30;;
11241;SDS011;5678;52.370;9.006;2023-03-01T10:59:22;0.40;;;0.40;;
11241;SDS011;5678;52.370;9.006;2023-03-01T11:02:13;0.40;;;0.40;;
11241;SDS011;5678;52.370;9.006;2023-03-01T11:04:57;0.30;;;0.30;;
11241;SDS011;5678;52.370;9.006;2023-03-01T11:07:27;0.40;;;0.40;;
11241;SDS011;5678;52.370;9.006;2023-03-01T11:09:55;0.30;;;0.30;;
11241;SDS011;5678;52.370;9.006;2023-03-01T11:12:23;0.40;;;0.40;;
11241;SDS011;5678;52.370;9.006;2023-03-01T11:14:53;0.40;;;0.40;;
11241;SDS011;5678;52.370;9.006;2023-03-01T11:17:23;0.40;;;0.40;;
11241;SDS011;5678;52.370;9.006;2023-03-01T11:20:03;0.40;;;0.40;;
11241;SDS011;5678;52.370;9.006;2023-03-01T11:22:45;0.30;;;0.30;;
11241;SDS011;5678;52.370;9.006;2023-03-01T11:25:16;0.40;;;0.40;;
11241;SDS011;5678;52.370;9.006;2023-03-01T11:27:46;0.30;;;0.30;;
11241;SDS011;5678;52.370;9.006;2023-03-01T11:30:15;0.40;;;0.40;;
11241;SDS011;5678;52.370;9.006;2023-03-01T11:32:52;0.50;;;0.50;;
11241;SDS011;5678;52.370;9.006;2023-03-01T11:35:28;0.20;;;0.20;;
11241;SDS011;5678;52.370;9.006;2023-03-01T11:38:02;0.33;;;0.33;;
11241;SDS011;5678;52.370;9.006;2023-03-01T11:40:37;0.33;;;0.33;;
11241;SDS011;5678;52.370;9.006;2023-03-01T11:43:11;0.33;;;0.33;;
11241;SDS011;5678;52.370;9.006;2023-03-01T11:45:50;0.43;;;0.43;;
11241;SDS011;5678;52.370;9.006;2023-03-01T11:48:52;0.30;;;0.30;;
11241;SDS011;5678;52.370;9.006;2023-03-01T11:51:35;0.40;;;0.40;;
11241;SDS011;5678;52.370;9.006;2023-03-01T11:54:12;0.63;;;0.63;;
11241;SDS011;5678;52.370;9.006;2023-03-01T11:56:46;0.40;;;0.40;;
11241;SDS011;5678;52.370;9.006;2023-03-01T11:59:30;0.40;;;0.40;;
11241;SDS011;5678;52.370;9.006;2023-03-01T12:02:19;0.40;;;0.40;;
11241;SDS011;5678;52.370;9.006;2023-03-01T12:07:53;0.40;;;0.40;;
11241;SDS011;5678;52.370;9.006;2023-03-01T12:10:27;0.43;;;0.43;;
11241;SDS011;5678;52.370;9.006;2023-03-01T12:15:58;0.30;;;0.30;;
11241;SDS011;5678;52.370;9.006;2023-03-01T12:19:01;0.30;;;0.30;;
11241;SDS011;5678;52.370;9.006;2023-03-01T12:21:57;0.30;;;0.30;;
11241;SDS011;5678;52.370;9.006;2023-03-01T12:30:40;0.40;;;0.40;;
11241;SDS011;5678;52.370;9.006;2023-03-01T12:33:19;0.60;;;0.60;;
11241;SDS011;5678;52.370;9.006;2023-03-01T12:38:55;0.40;;;0.40;;
11241;SDS011;5678;52.370;9.006;2023-03-01T12:41:38;0.40;;;0.40;;
11241;SDS011;5678;52.370;9.006;2023-03-01T12:44:15;0.30;;;0.30;;
11241;SDS011;5678;52.370;9.006;2023-03-01T12:49:47;0.30;;;0.30;;
11241;SDS011;5678;52.370;9.006;2023-03-01T12:52:19;0.43;;;0.43;;
11241;SDS011;5678;52.370;9.006;2023-03-01T12:54:53;0.50;;;0.50;;
11241;SDS011;5678;52.370;9.006;2023-03-01T12:57:25;0.40;;;0.40;;
11241;SDS011;5678;52.370;9.006;2023-03-01T13:00:06;0.50;;;0.50;;
11241;SDS011;5678;52.370;9.006;2023-03-01T13:02:50;0.40;;;0.40;;
11241;SDS011;5678;52.370;9.006;2023-03-01T13:05:29;0.40;;;0.40;;
11241;SDS011;5678;52.370;9.006;2023-03-01T13:08:08;0.40;;;0.40;;
11241;SDS011;5678;52.370;9.006;2023-03-01T13:10:46;0.50;;;0.50;;
11241;SDS011;5678;52.370;9.006;2023-03-01T13:13:20;0.30;;;0.30;;
11241;SDS011;5678;52.370;9.006;2023-03-01T13:15:49;0.40;;;0.40;;
11241;SDS011;5678;52.370;9.006;2023-03-01T13:21:01;0.40;;;0.40;;
11241;SDS011;5678;52.370;9.006;2023-03-01T13:23:33;0.27;;;0.27;;
11241;SDS011;5678;52.370;9.006;2023-03-01T13:26:05;0.47;;;0.47;;
11241;SDS011;5678;52.370;9.006;2023-03-01T13:28:49;0.37;;;0.37;;
11241;SDS011;5678;52.370;9.006;2023-03-01T13:34:41;0.40;;;0.40;;
11241;SDS011;5678;52.370;9.006;2023-03-01T13:37:23;0.50;;;0.50;;
11241;SDS011;5678;52.370;9.006;2023-03-01T13:39:57;0.50;;;0.50;;
11241;SDS011;5678;52.370;9.006;2023-03-01T13:42:39;0.30;;;0.30;;
11241;SDS011;5678;52.370;9.006;2023-03-01T13:45:22;0.40;;;0.40;;
11241;SDS011;5678;52.370;9.006;2023-03-01T13:48:01;0.33;;;0.33;;
11241;SDS011;5678;52.370;9.006;2023-03-01T13:50:33;0.33;;;0.33;;
11241;SDS011;5678;52.370;9.006;2023-03-01T13:53:06;0.40;;;0.40;;
11241;SDS011;5678;52.370;9.006;2023-03-01T13:55:41;0.40;;;0.40;;
11241;SDS011;5678;52.370;9.006;2023-03-01T13:58:16;0.53;;;0.53;;
11241;SDS011;5678;52.370;9.006;2023-03-01T14:00:54;0.30;;;0.30;;
11241;SDS011;5678;52.370;9.006;2023-03-01T14:03:24;0.40;;;0.40;;
11241;SDS011;5678;52.370;9.006;2023-03-01T14:06:00;0.30;;;0.30;;
11241;SDS011;5678;52.370;9.006;2023-03-01T14:08:41;0.23;;;0.23;;
11241;SDS011;5678;52.370;9.006;2023-03-01T14:11:20;0.30;;;0.30;;
11241;SDS011;5678;52.370;9.006;2023-03-01T14:14:15;0.40;;;0.40;;
11241;SDS011;5678;52.370;9.006;2023-03-01T14:17:33;0.33;;;0.33;;
11241;SDS011;5678;52.370;9.006;2023-03-01T14:20:11;0.40;;;0.40;;
11241;SDS011;5678;52.370;9.006;2023-03-01T14:22:43;0.47;;;0.47;;
11241;SDS011;5678;52.370;9.006;2023-03-01T14:25:20;0.47;;;0.47;;
11241;SDS011;5678;52.370;9.006;2023-03-01T14:27:58;0.40;;;0.40;;
11241;SDS011;5678;52.370;9.006;2023-03-01T14:30:34;0.30;;;0.30;;
11241;SDS011;5678;52.370;9.006;2023-03-01T14:33:05;0.40;;;0.40;;
11241;SDS011;5678;52.370;9.006;2023-03-01T14:35:51;0.40;;;0.40;;
11241;SDS011;5678;52.370;9.006;2023-03-01T14:38:22;0.40;;;0.40;;
11241;SDS011;5678;52.370;9.006;2023-03-01T14:40:51;0.40;;;0.40;;
11241;SDS011;5678;52.370;9.006;2023-03-01T14:43:24;0.40;;;0.40;;
11241;SDS011;5678;52.370;9.006;2023-03-01T14:45:55;0.30;;;0.30;;
11241;SDS011;5678;52.370;9.006;2023-03-01T14:48:23;0.40;;;0.40;;
11241;SDS011;5678;52.370;9.006;2023-03-01T14:50:52;0.30;;;0.30;;
11241;SDS011;5678;52.370;9.006;2023-03-01T14:53:21;0.40;;;0.40;;
11241;SDS011;5678;52.370;9.006;2023-03-01T14:55:51;0.33;;;0.33;;
11241;SDS011;5678;52.370;9.006;2023-03-01T14:58:21;0.40;;;0.40;;
11241;SDS011;5678;52.370;9.006;2023-03-01T15:00:51;0.40;;;0.40;;
11241;SDS011;5678;52.370;9.006;2023-03-01T15:03:27;0.40;;;0.40;;
11241;SDS011;5678;52.370;9.006;2023-03-01T15:05:58;0.40;;;0.40;;
11241;SDS011;5678;52.370;9.006;2023-03-01T15:08:28;0.40;;;0.40;;
11241;SDS011;5678;52.370;9.006;2023-03-01T15:11:00;0.50;;;0.50;;
11241;SDS011;5678;52.370;9.006;2023-03-01T15:13:34;0.40;;;0.40;;
11241;SDS011;5678;52.370;9.006;2023-03-01T15:16:06;0.50;;;0.50;;
11241;SDS011;5678;52.370;9.006;2023-03-01T15:18:38;0.37;;;0.37;;
11241;SDS011;5678;52.370;9.006;2023-03-01T15:21:15;0.40;;;0.40;;
11241;SDS011;5678;52.370;9.006;2023-03-01T15:23:48;0.30;;;0.30;;
11241;SDS011;5678;52.370;9.006;2023-03-01T15:26:23;0.30;;;0.30;;
11241;SDS011;5678;52.370;9.006;2023-03-01T15:28:54;0.33;;;0.33;;
11241;SDS011;5678;52.370;9.006;2023-03-01T15:31:25;0.40;;;0.40;;
11241;SDS011;5678;52.370;9.006;2023-03-01T15:34:08;0.50;;;0.50;;
11241;SDS011;5678;52.370;9.006;2023-03-01T15:36:40;0.50;;;0.50;;
11241;SDS011;5678;52.370;9.006;2023-03-01T15:39:25;0.40;;;0.40;;
11241;SDS011;5678;52.370;9.006;2023-03-01T15:42:03;0.40;;;0.40;;
11241;SDS011;5678;52.370;9.006;2023-03-01T15:44:34;0.40;;;0.40;;
11241;SDS011;5678;52.370;9.006;2023-03-01T15:47:21;0.33;;;0.33;;
11241;SDS011;5678;52.370;9.006;2023-03-01T15:49:54;0.40;;;0.40;;
11241;SDS011;5678;52.370;9.006;2023-03-01T15:52:25;0.50;;;0.50;;
11241;SDS011;5678;52.370;9.006;2023-03-01T15:55:00;0.40;;;0.40;;
11241;SDS011;5678;52.370;9.006;2023-03-01T15:57:30;0.40;;;0.40;;
11241;SDS011;5678;52.370;9.006;2023-03-01T15:59:58;0.40;;;0.40;;